Terminal Aerodrome Forecast
Issued by NWS

Home | Current Version | Previous Version | Text Only | Print | Product List | Glossary On
Versions: 1 2 3 4 5 6 7 8 9 10 11 12
000
FTUS45 KVEF 241732
TAFBIH
TAF
KBIH 241732Z 2418/2518 VRB04KT P6SM FEW130
     FM241900 18010G20KT P6SM SCT120 BKN150
     FM250200 15007KT P6SM SCT120 SCT150 BKN250
     FM250800 33006KT P6SM FEW120 SCT150=

USA.gov is the U.S. government's official web portal to all federal, state and local government web resources and services.